sensor_id;sensor_type;location;lat;lon;timestamp;pressure;altitude;pressure_sealevel;temperature;humidity
28167;BME280;15455;53.376;-6.262;2023-04-06T00:01:52;101107.59;;;8.55;100.00
28167;BME280;15455;53.376;-6.262;2023-04-06T00:04:37;101094.50;;;8.50;100.00
28167;BME280;15455;53.376;-6.262;2023-04-06T00:07:22;101092.78;;;8.48;100.00
28167;BME280;15455;53.376;-6.262;2023-04-06T00:10:08;101091.81;;;8.43;100.00
28167;BME280;15455;53.376;-6.262;2023-04-06T00:12:54;101098.66;;;8.38;100.00
28167;BME280;15455;53.376;-6.262;2023-04-06T00:15:41;101097.69;;;8.28;100.00
28167;BME280;15455;53.376;-6.262;2023-04-06T00:18:27;101101.03;;;8.17;100.00
28167;BME280;15455;53.376;-6.262;2023-04-06T00:21:13;101097.47;;;8.09;100.00
28167;BME280;15455;53.376;-6.262;2023-04-06T00:23:59;101096.44;;;7.98;100.00
28167;BME280;15455;53.376;-6.262;2023-04-06T00:26:45;101089.38;;;7.89;100.00
28167;BME280;15455;53.376;-6.262;2023-04-06T00:29:30;101088.44;;;7.84;100.00
28167;BME280;15455;53.376;-6.262;2023-04-06T00:32:15;101094.38;;;7.77;100.00
28167;BME280;15455;53.376;-6.262;2023-04-06T00:35:02;101085.66;;;7.70;100.00
28167;BME280;15455;53.376;-6.262;2023-04-06T00:37:48;101079.50;;;7.65;100.00
28167;BME280;15455;53.376;-6.262;2023-04-06T00:40:33;101080.31;;;7.62;100.00
28167;BME280;15455;53.376;-6.262;2023-04-06T00:43:20;101084.69;;;7.63;100.00
28167;BME280;15455;53.376;-6.262;2023-04-06T00:46:06;101087.25;;;7.62;100.00
28167;BME280;15455;53.376;-6.262;2023-04-06T00:48:51;101081.19;;;7.61;100.00
28167;BME280;15455;53.376;-6.262;2023-04-06T00:51:37;101095.88;;;7.59;100.00
28167;BME280;15455;53.376;-6.262;2023-04-06T00:54:23;101093.25;;;7.58;100.00
28167;BME280;15455;53.376;-6.262;2023-04-06T00:57:09;101105.31;;;7.54;100.00
28167;BME280;15455;53.376;-6.262;2023-04-06T00:59:55;101100.94;;;7.50;100.00
28167;BME280;15455;53.376;-6.262;2023-04-06T01:02:41;101099.19;;;7.49;100.00
28167;BME280;15455;53.376;-6.262;2023-04-06T01:05:28;101089.59;;;7.46;100.00
28167;BME280;15455;53.376;-6.262;2023-04-06T01:08:16;101086.97;;;7.45;100.00
28167;BME280;15455;53.376;-6.262;2023-04-06T01:11:02;101100.78;;;7.42;100.00
28167;BME280;15455;53.376;-6.262;2023-04-06T01:13:48;101101.72;;;7.44;100.00
28167;BME280;15455;53.376;-6.262;2023-04-06T01:16:46;101105.13;;;7.43;100.00
28167;BME280;15455;53.376;-6.262;2023-04-06T01:19:34;101112.13;;;7.46;100.00
28167;BME280;15455;53.376;-6.262;2023-04-06T01:22:21;101109.50;;;7.44;100.00
28167;BME280;15455;53.376;-6.262;2023-04-06T01:25:14;101105.22;;;7.48;100.00
28167;BME280;15455;53.376;-6.262;2023-04-06T01:28:20;101097.41;;;7.48;100.00
28167;BME280;15455;53.376;-6.262;2023-04-06T01:31:15;101093.13;;;7.50;100.00
28167;BME280;15455;53.376;-6.262;2023-04-06T01:34:08;101089.66;;;7.50;100.00
28167;BME280;15455;53.376;-6.262;2023-04-06T01:36:53;101091.41;;;7.51;100.00
28167;BME280;15455;53.376;-6.262;2023-04-06T01:39:45;101081.91;;;7.51;100.00
28167;BME280;15455;53.376;-6.262;2023-04-06T01:42:40;101076.66;;;7.50;100.00
28167;BME280;15455;53.376;-6.262;2023-04-06T01:45:30;101075.81;;;7.49;100.00
28167;BME280;15455;53.376;-6.262;2023-04-06T01:48:22;101072.34;;;7.48;100.00
28167;BME280;15455;53.376;-6.262;2023-04-06T01:51:07;101074.03;;;7.46;100.00
28167;BME280;15455;53.376;-6.262;2023-04-06T01:54:02;101068.81;;;7.45;100.00
28167;BME280;15455;53.376;-6.262;2023-04-06T01:57:01;101069.69;;;7.44;100.00
28167;BME280;15455;53.376;-6.262;2023-04-06T01:59:54;101074.88;;;7.44;100.00
28167;BME280;15455;53.376;-6.262;2023-04-06T02:02:57;101069.69;;;7.45;100.00
28167;BME280;15455;53.376;-6.262;2023-04-06T02:05:45;101063.63;;;7.46;100.00
28167;BME280;15455;53.376;-6.262;2023-04-06T02:08:54;101067.16;;;7.50;100.00
28167;BME280;15455;53.376;-6.262;2023-04-06T02:11:40;101069.78;;;7.52;100.00
28167;BME280;15455;53.376;-6.262;2023-04-06T02:14:25;101067.19;;;7.52;100.00
28167;BME280;15455;53.376;-6.262;2023-04-06T02:17:14;101073.22;;;7.51;100.00
28167;BME280;15455;53.376;-6.262;2023-04-06T02:20:00;101068.88;;;7.50;100.00
28167;BME280;15455;53.376;-6.262;2023-04-06T02:22:47;101068.03;;;7.51;100.00
28167;BME280;15455;53.376;-6.262;2023-04-06T02:25:32;101063.69;;;7.50;100.00
28167;BME280;15455;53.376;-6.262;2023-04-06T02:28:18;101062.72;;;7.43;100.00
28167;BME280;15455;53.376;-6.262;2023-04-06T02:31:04;101060.13;;;7.43;100.00
28167;BME280;15455;53.376;-6.262;2023-04-06T02:33:49;101064.41;;;7.41;100.00
28167;BME280;15455;53.376;-6.262;2023-04-06T02:36:35;101066.09;;;7.37;100.00
28167;BME280;15455;53.376;-6.262;2023-04-06T02:39:20;101061.75;;;7.36;100.00
28167;BME280;15455;53.376;-6.262;2023-04-06T02:42:06;101072.13;;;7.35;100.00
28167;BME280;15455;53.376;-6.262;2023-04-06T02:44:54;101070.31;;;7.30;100.00
28167;BME280;15455;53.376;-6.262;2023-04-06T02:47:44;101061.69;;;7.32;100.00
28167;BME280;15455;53.376;-6.262;2023-04-06T02:50:33;101059.94;;;7.30;100.00
28167;BME280;15455;53.376;-6.262;2023-04-06T02:53:23;101065.13;;;7.30;100.00
28167;BME280;15455;53.376;-6.262;2023-04-06T02:56:08;101080.66;;;7.27;100.00
28167;BME280;15455;53.376;-6.262;2023-04-06T02:59:03;101074.56;;;7.25;100.00
28167;BME280;15455;53.376;-6.262;2023-04-06T03:01:50;101073.66;;;7.23;100.00
28167;BME280;15455;53.376;-6.262;2023-04-06T03:04:36;101080.59;;;7.23;100.00
28167;BME280;15455;53.376;-6.262;2023-04-06T03:07:28;101073.66;;;7.23;100.00
28167;BME280;15455;53.376;-6.262;2023-04-06T03:10:13;101076.16;;;7.17;100.00
28167;BME280;15455;53.376;-6.262;2023-04-06T03:13:01;101072.69;;;7.17;100.00
28167;BME280;15455;53.376;-6.262;2023-04-06T03:16:06;101076.16;;;7.17;100.00
28167;BME280;15455;53.376;-6.262;2023-04-06T03:18:53;101065.75;;;7.16;100.00
28167;BME280;15455;53.376;-6.262;2023-04-06T03:21:39;101077.00;;;7.16;100.00
28167;BME280;15455;53.376;-6.262;2023-04-06T03:24:25;101075.28;;;7.15;100.00
28167;BME280;15455;53.376;-6.262;2023-04-06T03:27:11;101074.34;;;7.11;100.00
28167;BME280;15455;53.376;-6.262;2023-04-06T03:29:59;101069.13;;;7.10;100.00
28167;BME280;15455;53.376;-6.262;2023-04-06T03:32:50;101074.31;;;7.10;100.00
28167;BME280;15455;53.376;-6.262;2023-04-06T03:35:37;101073.44;;;7.08;100.00
28167;BME280;15455;53.376;-6.262;2023-04-06T03:38:23;101076.84;;;7.07;100.00
28167;BME280;15455;53.376;-6.262;2023-04-06T03:41:09;101076.84;;;7.05;100.00
28167;BME280;15455;53.376;-6.262;2023-04-06T03:43:56;101067.31;;;7.06;100.00
28167;BME280;15455;53.376;-6.262;2023-04-06T03:46:41;101082.84;;;7.03;100.00
28167;BME280;15455;53.376;-6.262;2023-04-06T03:49:28;101073.28;;;7.00;100.00
28167;BME280;15455;53.376;-6.262;2023-04-06T03:52:16;101074.09;;;6.98;100.00
28167;BME280;15455;53.376;-6.262;2023-04-06T03:55:02;101080.97;;;6.95;100.00
28167;BME280;15455;53.376;-6.262;2023-04-06T03:57:47;101085.31;;;6.95;100.00
28167;BME280;15455;53.376;-6.262;2023-04-06T04:00:33;101091.31;;;6.92;100.00
28167;BME280;15455;53.376;-6.262;2023-04-06T04:03:18;101090.44;;;6.92;100.00
28167;BME280;15455;53.376;-6.262;2023-04-06T04:06:05;101096.47;;;6.91;100.00
28167;BME280;15455;53.376;-6.262;2023-04-06T04:08:51;101095.56;;;6.90;100.00
28167;BME280;15455;53.376;-6.262;2023-04-06T04:11:37;101096.44;;;6.89;100.00
28167;BME280;15455;53.376;-6.262;2023-04-06T04:14:22;101102.41;;;6.85;100.00
28167;BME280;15455;53.376;-6.262;2023-04-06T04:17:08;101102.34;;;6.81;100.00
28167;BME280;15455;53.376;-6.262;2023-04-06T04:19:53;101108.28;;;6.75;100.00
28167;BME280;15455;53.376;-6.262;2023-04-06T04:22:40;101103.03;;;6.70;100.00
28167;BME280;15455;53.376;-6.262;2023-04-06T04:25:26;101098.63;;;6.66;100.00
28167;BME280;15455;53.376;-6.262;2023-04-06T04:28:11;101101.19;;;6.65;100.00
28167;BME280;15455;53.376;-6.262;2023-04-06T04:30:59;101097.59;;;6.59;100.00
28167;BME280;15455;53.376;-6.262;2023-04-06T04:33:48;101096.72;;;6.57;100.00
28167;BME280;15455;53.376;-6.262;2023-04-06T04:36:41;101097.56;;;6.56;100.00
28167;BME280;15455;53.376;-6.262;2023-04-06T04:39:37;101109.63;;;6.54;100.00
28167;BME280;15455;53.376;-6.262;2023-04-06T04:42:24;101123.44;;;6.53;100.00
28167;BME280;15455;53.376;-6.262;2023-04-06T04:45:13;101123.44;;;6.53;100.00
28167;BME280;15455;53.376;-6.262;2023-04-06T04:48:00;101117.41;;;6.54;100.00
28167;BME280;15455;53.376;-6.262;2023-04-06T04:50:54;101129.53;;;6.57;100.00
28167;BME280;15455;53.376;-6.262;2023-04-06T04:53:44;101126.97;;;6.58;100.00
28167;BME280;15455;53.376;-6.262;2023-04-06T04:56:43;101126.97;;;6.58;100.00
28167;BME280;15455;53.376;-6.262;2023-04-06T04:59:46;101125.25;;;6.57;100.00
28167;BME280;15455;53.376;-6.262;2023-04-06T05:02:36;101126.09;;;6.58;100.00
28167;BME280;15455;53.376;-6.262;2023-04-06T05:05:34;101122.69;;;6.59;100.00
28167;BME280;15455;53.376;-6.262;2023-04-06T05:08:22;101125.25;;;6.57;100.00
28167;BME280;15455;53.376;-6.262;2023-04-06T05:11:08;101119.88;;;6.50;100.00
28167;BME280;15455;53.376;-6.262;2023-04-06T05:13:59;101124.88;;;6.39;100.00
28167;BME280;15455;53.376;-6.262;2023-04-06T05:16:46;101135.91;;;6.30;100.00
28167;BME280;15455;53.376;-6.262;2023-04-06T05:19:32;101138.31;;;6.22;100.00
28167;BME280;15455;53.376;-6.262;2023-04-06T05:22:18;101143.41;;;6.18;100.00
28167;BME280;15455;53.376;-6.262;2023-04-06T05:25:11;101157.22;;;6.17;100.00
28167;BME280;15455;53.376;-6.262;2023-04-06T05:27:57;101157.16;;;6.15;100.00
28167;BME280;15455;53.376;-6.262;2023-04-06T05:30:47;101159.81;;;6.17;100.00
28167;BME280;15455;53.376;-6.262;2023-04-06T05:33:34;101155.59;;;6.22;100.00
28167;BME280;15455;53.376;-6.262;2023-04-06T05:36:23;101162.59;;;6.26;100.00
28167;BME280;15455;53.376;-6.262;2023-04-06T05:39:10;101161.81;;;6.29;100.00
28167;BME280;15455;53.376;-6.262;2023-04-06T05:42:04;101167.06;;;6.32;100.00
28167;BME280;15455;53.376;-6.262;2023-04-06T05:45:17;101161.91;;;6.33;100.00
28167;BME280;15455;53.376;-6.262;2023-04-06T05:48:09;101160.19;;;6.35;100.00
28167;BME280;15455;53.376;-6.262;2023-04-06T05:50:55;101170.56;;;6.35;100.00
28167;BME280;15455;53.376;-6.262;2023-04-06T05:53:48;101168.09;;;6.40;100.00
28167;BME280;15455;53.376;-6.262;2023-04-06T05:56:33;101171.59;;;6.42;100.00
28167;BME280;15455;53.376;-6.262;2023-04-06T05:59:20;101181.13;;;6.43;100.00
28167;BME280;15455;53.376;-6.262;2023-04-06T06:02:06;101184.63;;;6.45;100.00
28167;BME280;15455;53.376;-6.262;2023-04-06T06:04:56;101179.44;;;6.45;100.00
28167;BME280;15455;53.376;-6.262;2023-04-06T06:07:43;101189.84;;;6.48;100.00
28167;BME280;15455;53.376;-6.262;2023-04-06T06:10:29;101189.03;;;6.49;100.00
28167;BME280;15455;53.376;-6.262;2023-04-06T06:13:16;101194.19;;;6.48;100.00
28167;BME280;15455;53.376;-6.262;2023-04-06T06:16:02;101197.63;;;6.48;100.00
28167;BME280;15455;53.376;-6.262;2023-04-06T06:18:53;101207.16;;;6.48;100.00
28167;BME280;15455;53.376;-6.262;2023-04-06T06:21:39;101205.44;;;6.50;100.00
28167;BME280;15455;53.376;-6.262;2023-04-06T06:24:25;101214.94;;;6.48;100.00
28167;BME280;15455;53.376;-6.262;2023-04-06T06:27:11;101217.53;;;6.48;100.00
28167;BME280;15455;53.376;-6.262;2023-04-06T06:29:57;101214.94;;;6.48;100.00
28167;BME280;15455;53.376;-6.262;2023-04-06T06:32:42;101225.25;;;6.46;100.00
28167;BME280;15455;53.376;-6.262;2023-04-06T06:35:28;101226.94;;;6.44;100.00
28167;BME280;15455;53.376;-6.262;2023-04-06T06:38:18;101232.13;;;6.44;100.00
28167;BME280;15455;53.376;-6.262;2023-04-06T06:41:07;101235.59;;;6.45;100.00
28167;BME280;15455;53.376;-6.262;2023-04-06T06:43:54;101233.72;;;6.37;100.00
28167;BME280;15455;53.376;-6.262;2023-04-06T06:46:40;101232.00;;;6.38;100.00
28167;BME280;15455;53.376;-6.262;2023-04-06T06:49:25;101229.50;;;6.42;100.00
28167;BME280;15455;53.376;-6.262;2023-04-06T06:52:11;101238.13;;;6.41;100.00
28167;BME280;15455;53.376;-6.262;2023-04-06T06:54:56;101240.72;;;6.41;100.00
28167;BME280;15455;53.376;-6.262;2023-04-06T06:57:42;101235.44;;;6.38;100.00
28167;BME280;15455;53.376;-6.262;2023-04-06T07:00:28;101242.41;;;6.41;100.00
28167;BME280;15455;53.376;-6.262;2023-04-06T07:03:14;101243.34;;;6.43;100.00
28167;BME280;15455;53.376;-6.262;2023-04-06T07:06:01;101248.59;;;6.46;100.00
28167;BME280;15455;53.376;-6.262;2023-04-06T07:08:46;101246.16;;;6.54;100.00
28167;BME280;15455;53.376;-6.262;2023-04-06T07:11:32;101248.88;;;6.60;100.00
28167;BME280;15455;53.376;-6.262;2023-04-06T07:14:18;101251.59;;;6.65;100.00
28167;BME280;15455;53.376;-6.262;2023-04-06T07:17:04;101252.50;;;6.67;100.00
28167;BME280;15455;53.376;-6.262;2023-04-06T07:19:50;101252.56;;;6.70;100.00
28167;BME280;15455;53.376;-6.262;2023-04-06T07:22:39;101253.44;;;6.69;100.00
28167;BME280;15455;53.376;-6.262;2023-04-06T07:25:25;101252.53;;;6.68;100.00
28167;BME280;15455;53.376;-6.262;2023-04-06T07:28:10;101255.97;;;6.67;100.00
28167;BME280;15455;53.376;-6.262;2023-04-06T07:30:56;101258.50;;;6.64;100.00
28167;BME280;15455;53.376;-6.262;2023-04-06T07:33:42;101260.13;;;6.59;100.00
28167;BME280;15455;53.376;-6.262;2023-04-06T07:36:28;101261.84;;;6.60;100.00
28167;BME280;15455;53.376;-6.262;2023-04-06T07:39:13;101268.84;;;6.63;100.00
28167;BME280;15455;53.376;-6.262;2023-04-06T07:41:59;101268.09;;;6.68;100.00
28167;BME280;15455;53.376;-6.262;2023-04-06T07:44:45;101273.38;;;6.73;100.00
28167;BME280;15455;53.376;-6.262;2023-04-06T07:47:31;101271.78;;;6.78;100.00
28167;BME280;15455;53.376;-6.262;2023-04-06T07:50:17;101264.81;;;6.77;100.00
28167;BME280;15455;53.376;-6.262;2023-04-06T07:53:02;101266.53;;;6.75;100.00
28167;BME280;15455;53.376;-6.262;2023-04-06T07:55:48;101268.22;;;6.74;100.00
28167;BME280;15455;53.376;-6.262;2023-04-06T07:58:34;101268.16;;;6.71;100.00
28167;BME280;15455;53.376;-6.262;2023-04-06T08:01:20;101273.53;;;6.79;100.00
28167;BME280;15455;53.376;-6.262;2023-04-06T08:04:05;101276.59;;;7.02;100.00
28167;BME280;15455;53.376;-6.262;2023-04-06T08:06:51;101283.88;;;7.20;100.00
28167;BME280;15455;53.376;-6.262;2023-04-06T08:09:36;101286.56;;;7.25;100.00
28167;BME280;15455;53.376;-6.262;2023-04-06T08:12:22;101278.75;;;7.23;100.00
28167;BME280;15455;53.376;-6.262;2023-04-06T08:15:08;101274.63;;;7.33;100.00
28167;BME280;15455;53.376;-6.262;2023-04-06T08:17:53;101272.13;;;7.39;100.00
28167;BME280;15455;53.376;-6.262;2023-04-06T08:20:42;101270.53;;;7.46;100.00
28167;BME280;15455;53.376;-6.262;2023-04-06T08:23:28;101271.38;;;7.45;100.00
28167;BME280;15455;53.376;-6.262;2023-04-06T08:26:13;101278.47;;;7.55;100.00
28167;BME280;15455;53.376;-6.262;2023-04-06T08:28:58;101269.03;;;7.59;100.00
28167;BME280;15455;53.376;-6.262;2023-04-06T08:31:44;101269.09;;;7.62;100.00
28167;BME280;15455;53.376;-6.262;2023-04-06T08:34:29;101274.31;;;7.63;100.00
28167;BME280;15455;53.376;-6.262;2023-04-06T08:37:14;101266.69;;;7.73;100.00
28167;BME280;15455;53.376;-6.262;2023-04-06T08:40:00;101272.00;;;7.79;100.00
28167;BME280;15455;53.376;-6.262;2023-04-06T08:42:52;101272.34;;;7.99;100.00
28167;BME280;15455;53.376;-6.262;2023-04-06T08:45:38;101270.56;;;7.98;100.00
28167;BME280;15455;53.376;-6.262;2023-04-06T08:48:25;101276.00;;;8.10;100.00
28167;BME280;15455;53.376;-6.262;2023-04-06T08:51:11;101277.09;;;8.26;100.00
28167;BME280;15455;53.376;-6.262;2023-04-06T08:53:58;101277.22;;;8.34;100.00
28167;BME280;15455;53.376;-6.262;2023-04-06T08:56:44;101276.41;;;8.37;100.00
28167;BME280;15455;53.376;-6.262;2023-04-06T08:59:31;101276.41;;;8.38;100.00
28167;BME280;15455;53.376;-6.262;2023-04-06T09:02:18;101268.66;;;8.41;100.00
28167;BME280;15455;53.376;-6.262;2023-04-06T09:05:04;101281.16;;;8.62;100.00
28167;BME280;15455;53.376;-6.262;2023-04-06T09:07:53;101272.44;;;8.62;100.00
28167;BME280;15455;53.376;-6.262;2023-04-06T09:10:40;101285.66;;;8.76;100.00
28167;BME280;15455;53.376;-6.262;2023-04-06T09:13:26;101289.25;;;8.84;100.00
28167;BME280;15455;53.376;-6.262;2023-04-06T09:16:11;101276.06;;;8.72;100.00
28167;BME280;15455;53.376;-6.262;2023-04-06T09:19:04;101284.81;;;8.77;100.00
28167;BME280;15455;53.376;-6.262;2023-04-06T09:21:49;101286.69;;;8.87;100.00
28167;BME280;15455;53.376;-6.262;2023-04-06T09:24:45;101296.41;;;9.02;100.00
28167;BME280;15455;53.376;-6.262;2023-04-06T09:27:33;101295.47;;;8.98;100.00
28167;BME280;15455;53.376;-6.262;2023-04-06T09:30:19;101295.38;;;8.91;100.00
28167;BME280;15455;53.376;-6.262;2023-04-06T09:33:04;101302.34;;;8.92;100.00
28167;BME280;15455;53.376;-6.262;2023-04-06T09:35:50;101302.34;;;8.90;100.00
28167;BME280;15455;53.376;-6.262;2023-04-06T09:38:52;101311.84;;;8.90;100.00
28167;BME280;15455;53.376;-6.262;2023-04-06T09:41:38;101315.63;;;9.10;100.00
28167;BME280;15455;53.376;-6.262;2023-04-06T09:44:24;101316.34;;;9.00;100.00
28167;BME280;15455;53.376;-6.262;2023-04-06T09:47:09;101323.19;;;8.93;100.00
28167;BME280;15455;53.376;-6.262;2023-04-06T09:49:59;101316.88;;;8.74;100.00
28167;BME280;15455;53.376;-6.262;2023-04-06T09:52:50;101320.06;;;8.56;100.00
28167;BME280;15455;53.376;-6.262;2023-04-06T09:55:43;101322.69;;;8.59;100.00
28167;BME280;15455;53.376;-6.262;2023-04-06T09:58:34;101330.00;;;8.85;100.00
28167;BME280;15455;53.376;-6.262;2023-04-06T10:01:21;101320.97;;;9.23;100.00
28167;BME280;15455;53.376;-6.262;2023-04-06T10:04:43;101314.09;;;9.28;100.00
28167;BME280;15455;53.376;-6.262;2023-04-06T10:07:29;101312.25;;;9.19;100.00
28167;BME280;15455;53.376;-6.262;2023-04-06T10:10:15;101324.06;;;8.95;100.00
28167;BME280;15455;53.376;-6.262;2023-04-06T10:13:01;101336.22;;;8.95;100.00
28167;BME280;15455;53.376;-6.262;2023-04-06T10:15:47;101323.19;;;8.93;100.00
28167;BME280;15455;53.376;-6.262;2023-04-06T10:18:33;101326.22;;;9.27;100.00
28167;BME280;15455;53.376;-6.262;2023-04-06T10:21:20;101333.72;;;9.78;100.00
28167;BME280;15455;53.376;-6.262;2023-04-06T10:24:08;101324.44;;;10.04;100.00
28167;BME280;15455;53.376;-6.262;2023-04-06T10:27:01;101334.03;;;10.08;100.00
28167;BME280;15455;53.376;-6.262;2023-04-06T10:29:47;101326.84;;;9.83;100.00
28167;BME280;15455;53.376;-6.262;2023-04-06T10:32:37;101336.06;;;9.51;100.00
28167;BME280;15455;53.376;-6.262;2023-04-06T10:35:23;101339.56;;;9.52;100.00
28167;BME280;15455;53.376;-6.262;2023-04-06T10:38:09;101339.44;;;9.44;100.00
28167;BME280;15455;53.376;-6.262;2023-04-06T10:41:09;101348.19;;;9.48;100.00
28167;BME280;15455;53.376;-6.262;2023-04-06T10:43:56;101337.78;;;9.49;100.00
28167;BME280;15455;53.376;-6.262;2023-04-06T10:46:52;101339.84;;;9.80;100.00
28167;BME280;15455;53.376;-6.262;2023-04-06T10:49:38;101340.06;;;10.01;100.00
28167;BME280;15455;53.376;-6.262;2023-04-06T10:52:23;101338.31;;;10.00;100.00
28167;BME280;15455;53.376;-6.262;2023-04-06T10:55:10;101340.00;;;9.95;100.00
28167;BME280;15455;53.376;-6.262;2023-04-06T10:57:55;101347.72;;;9.84;100.00
28167;BME280;15455;53.376;-6.262;2023-04-06T11:00:48;101343.53;;;10.00;100.00
28167;BME280;15455;53.376;-6.262;2023-04-06T11:03:43;101341.16;;;10.30;100.00
28167;BME280;15455;53.376;-6.262;2023-04-06T11:06:30;101351.41;;;10.06;100.00
28167;BME280;15455;53.376;-6.262;2023-04-06T11:09:26;101347.75;;;9.87;100.00
28167;BME280;15455;53.376;-6.262;2023-04-06T11:12:41;101359.97;;;9.93;100.00
28167;BME280;15455;53.376;-6.262;2023-04-06T11:15:33;101349.81;;;10.24;100.00
28167;BME280;15455;53.376;-6.262;2023-04-06T11:18:22;101346.56;;;10.50;100.00
28167;BME280;15455;53.376;-6.262;2023-04-06T11:21:07;101359.78;;;10.71;100.00
28167;BME280;15455;53.376;-6.262;2023-04-06T11:24:06;101361.53;;;10.69;100.00
28167;BME280;15455;53.376;-6.262;2023-04-06T11:26:58;101356.19;;;10.57;100.00
28167;BME280;15455;53.376;-6.262;2023-04-06T11:29:46;101359.06;;;10.92;100.00
28167;BME280;15455;53.376;-6.262;2023-04-06T11:32:42;101356.66;;;11.39;100.00
28167;BME280;15455;53.376;-6.262;2023-04-06T11:35:30;101354.03;;;11.31;100.00
28167;BME280;15455;53.376;-6.262;2023-04-06T11:38:18;101366.84;;;10.85;100.00
28167;BME280;15455;53.376;-6.262;2023-04-06T11:41:04;101368.44;;;10.64;100.00
28167;BME280;15455;53.376;-6.262;2023-04-06T11:43:50;101369.06;;;10.34;100.00
28167;BME280;15455;53.376;-6.262;2023-04-06T11:46:35;101371.69;;;10.38;100.00
28167;BME280;15455;53.376;-6.262;2023-04-06T11:49:21;101363.31;;;10.76;100.00
28167;BME280;15455;53.376;-6.262;2023-04-06T11:52:22;101371.31;;;11.03;100.00
28167;BME280;15455;53.376;-6.262;2023-04-06T11:55:13;101366.91;;;10.95;100.00
28167;BME280;15455;53.376;-6.262;2023-04-06T11:57:59;101366.97;;;11.06;100.00
28167;BME280;15455;53.376;-6.262;2023-04-06T12:00:45;101377.50;;;11.22;100.00
28167;BME280;15455;53.376;-6.262;2023-04-06T12:03:31;101378.44;;;11.41;100.00
28167;BME280;15455;53.376;-6.262;2023-04-06T12:06:18;101382.81;;;11.39;100.00
28167;BME280;15455;53.376;-6.262;2023-04-06T12:09:03;101382.59;;;11.00;100.00
28167;BME280;15455;53.376;-6.262;2023-04-06T12:11:49;101379.13;;;10.98;100.00
28167;BME280;15455;53.376;-6.262;2023-04-06T12:14:35;101381.69;;;10.92;100.00
28167;BME280;15455;53.376;-6.262;2023-04-06T12:17:20;101379.16;;;11.07;100.00
28167;BME280;15455;53.376;-6.262;2023-04-06T12:20:06;101384.34;;;10.98;100.00
28167;BME280;15455;53.376;-6.262;2023-04-06T12:23:09;101373.78;;;10.83;100.00
28167;BME280;15455;53.376;-6.262;2023-04-06T12:25:54;101374.78;;;11.05;100.00
28167;BME280;15455;53.376;-6.262;2023-04-06T12:28:40;101379.41;;;11.58;100.00
28167;BME280;15455;53.376;-6.262;2023-04-06T12:31:27;101384.78;;;12.03;100.00
28167;BME280;15455;53.376;-6.262;2023-04-06T12:34:12;101376.88;;;11.91;100.00
28167;BME280;15455;53.376;-6.262;2023-04-06T12:36:58;101389.06;;;11.86;100.00
28167;BME280;15455;53.376;-6.262;2023-04-06T12:39:43;101384.66;;;11.80;100.00
28167;BME280;15455;53.376;-6.262;2023-04-06T12:42:30;101386.50;;;12.04;100.00
28167;BME280;15455;53.376;-6.262;2023-04-06T12:45:15;101387.44;;;12.36;100.00
28167;BME280;15455;53.376;-6.262;2023-04-06T12:48:01;101386.53;;;12.50;100.00
28167;BME280;15455;53.376;-6.262;2023-04-06T12:51:00;101384.78;;;12.17;100.00
28167;BME280;15455;53.376;-6.262;2023-04-06T12:53:45;101385.69;;;12.21;100.00
28167;BME280;15455;53.376;-6.262;2023-04-06T12:56:31;101402.13;;;11.82;100.00
28167;BME280;15455;53.376;-6.262;2023-04-06T12:59:16;101399.44;;;11.64;100.00
28167;BME280;15455;53.376;-6.262;2023-04-06T13:02:03;101411.47;;;11.26;100.00
28167;BME280;15455;53.376;-6.262;2023-04-06T13:04:49;101407.88;;;11.06;100.00
28167;BME280;15455;53.376;-6.262;2023-04-06T13:07:35;101402.91;;;11.57;100.00
28167;BME280;15455;53.376;-6.262;2023-04-06T13:10:21;101407.44;;;12.07;100.00
28167;BME280;15455;53.376;-6.262;2023-04-06T13:13:06;101406.63;;;12.27;100.00
28167;BME280;15455;53.376;-6.262;2023-04-06T13:15:58;101408.38;;;12.71;100.00
28167;BME280;15455;53.376;-6.262;2023-04-06T13:18:43;101412.69;;;13.09;100.00
28167;BME280;15455;53.376;-6.262;2023-04-06T13:21:29;101409.91;;;13.60;100.00
28167;BME280;15455;53.376;-6.262;2023-04-06T13:24:15;101410.91;;;13.13;90.68
28167;BME280;15455;53.376;-6.262;2023-04-06T13:27:01;101420.59;;;12.60;93.42
28167;BME280;15455;53.376;-6.262;2023-04-06T13:29:47;101417.09;;;12.44;100.00
28167;BME280;15455;53.376;-6.262;2023-04-06T13:32:32;101415.31;;;12.30;100.00
28167;BME280;15455;53.376;-6.262;2023-04-06T13:35:18;101419.69;;;12.27;100.00
28167;BME280;15455;53.376;-6.262;2023-04-06T13:38:04;101421.47;;;12.54;100.00
28167;BME280;15455;53.376;-6.262;2023-04-06T13:40:50;101415.34;;;12.72;99.67
28167;BME280;15455;53.376;-6.262;2023-04-06T13:43:36;101415.31;;;13.03;99.79
28167;BME280;15455;53.376;-6.262;2023-04-06T13:46:21;101419.63;;;13.30;96.59
28167;BME280;15455;53.376;-6.262;2023-04-06T13:49:09;101422.25;;;13.33;88.75
28167;BME280;15455;53.376;-6.262;2023-04-06T13:51:55;101429.22;;;13.45;88.08
28167;BME280;15455;53.376;-6.262;2023-04-06T13:54:40;101422.19;;;13.60;85.88
28167;BME280;15455;53.376;-6.262;2023-04-06T13:57:25;101419.63;;;13.26;90.82
28167;BME280;15455;53.376;-6.262;2023-04-06T14:00:12;101427.44;;;13.55;94.53
28167;BME280;15455;53.376;-6.262;2023-04-06T14:02:59;101425.66;;;13.68;88.67
28167;BME280;15455;53.376;-6.262;2023-04-06T14:05:45;101422.19;;;13.58;83.97
28167;BME280;15455;53.376;-6.262;2023-04-06T14:08:31;101426.41;;;13.88;89.78
28167;BME280;15455;53.376;-6.262;2023-04-06T14:11:16;101428.19;;;13.80;85.41
28167;BME280;15455;53.376;-6.262;2023-04-06T14:14:01;101431.78;;;13.64;81.80
28167;BME280;15455;53.376;-6.262;2023-04-06T14:16:47;101425.75;;;13.31;87.18
28167;BME280;15455;53.376;-6.262;2023-04-06T14:19:32;101431.06;;;12.64;86.23
28167;BME280;15455;53.376;-6.262;2023-04-06T14:22:18;101428.44;;;12.44;91.78
28167;BME280;15455;53.376;-6.262;2023-04-06T14:25:04;101426.66;;;12.14;94.23